This is the latest recevied weather packets stored in our database for station/object CQ0XVC-11. If no packets are shown the sender has not sent any weather packets the latest 10 day(s).
| Time | Temp. | Humidity | Pressure | Rain* | Wind** | Luminosity | Snow |
|---|---|---|---|---|---|---|---|
| 1778076061 | 19.44° C | 30% | 998.8 hPa | 0 mm | - | - | - |
| 1778075791 | 20° C | 26% | 998.8 hPa | 0 mm | - | - | - |
| 1778075760 | 20° C | 26% | 998.8 hPa | 0 mm | - | - | - |
| 1778075489 | 19.44° C | 28% | 999 hPa | 0 mm | - | - | - |
| 1778075457 | 19.44° C | 28% | 999 hPa | 0 mm | - | - | - |
| 1778075203 | 19.44° C | 27% | 998.8 hPa | 0 mm | - | - | - |
| 1778075155 | 19.44° C | 27% | 998.8 hPa | 0 mm | - | - | - |
| 1778074853 | 19.44° C | 25% | 999 hPa | 0 mm | - | - | - |
| 1778074583 | 19.44° C | 25% | 999 hPa | 0 mm | - | - | - |
| 1778074551 | 19.44° C | 25% | 999 hPa | 0 mm | - | - | - |
| 1778074248 | 19.44° C | 26% | 999 hPa | 0 mm | - | - | - |
| 1778073980 | 18.89° C | 27% | 999.2 hPa | 0 mm | - | - | - |
| 1778073947 | 18.89° C | 27% | 999.2 hPa | 0 mm | - | - | - |
| 1778073677 | 18.33° C | 29% | 999.2 hPa | 0 mm | - | - | - |
| 1778073644 | 18.33° C | 29% | 999.2 hPa | 0 mm | - | - | - |
| 1778073385 | 17.78° C | 28% | 999.3 hPa | 0 mm | - | - | - |
| 1778073342 | 17.78° C | 28% | 999.3 hPa | 0 mm | - | - | - |
| 1778073074 | 17.78° C | 30% | 999.3 hPa | 0 mm | - | - | - |
| 1778073040 | 17.78° C | 30% | 999.3 hPa | 0 mm | - | - | - |
| 1778072738 | 17.78° C | 30% | 999.5 hPa | 0 mm | - | - | - |
| 1778072477 | 17.78° C | 28% | 999.5 hPa | 0 mm | - | - | - |
| 1778072435 | 17.78° C | 28% | 999.5 hPa | 0 mm | - | - | - |
| 1778072181 | 17.78° C | 28% | 999.7 hPa | 0 mm | - | - | - |
| 1778072134 | 17.78° C | 28% | 999.7 hPa | 0 mm | - | - | - |
| 1778071875 | 17.78° C | 28% | 999.6 hPa | 0 mm | - | - | - |
* Rain since midnight (hover to see other rain measurements)
** Current wind speed in m/s (hover to see current wind gust speed)